createdAt,value
2022-10-21T00:01:32.383Z,100236.38
2022-10-21T00:03:34.424Z,100232.06
2022-10-21T00:05:36.070Z,100228.63
2022-10-21T00:07:37.864Z,100227.75
2022-10-21T00:09:39.588Z,100227.75
2022-10-21T00:11:41.276Z,100226.03
2022-10-21T00:13:42.948Z,100223.41
2022-10-21T00:15:44.631Z,100217.34
2022-10-21T00:17:46.359Z,100216.50
2022-10-21T00:19:48.009Z,100218.25
2022-10-21T00:21:49.880Z,100214.75
2022-10-21T00:23:51.603Z,100213.03
2022-10-21T00:25:58.182Z,100218.19
2022-10-21T00:27:59.753Z,100223.38
2022-10-21T00:30:01.931Z,100219.06
2022-10-21T00:32:03.601Z,100220.78
2022-10-21T00:34:05.256Z,100218.19
2022-10-21T00:36:07.939Z,100219.91
2022-10-21T00:38:09.971Z,100217.31
2022-10-21T00:40:11.666Z,100230.25
2022-10-21T00:42:21.732Z,100231.09
2022-10-21T00:44:23.495Z,100233.69
2022-10-21T00:46:37.809Z,100236.28
2022-10-21T00:48:45.395Z,100230.22
2022-10-21T00:51:00.950Z,100232.84
2022-10-21T00:53:04.965Z,100218.13
2022-10-21T00:55:07.309Z,100206.91
2022-10-21T00:57:10.661Z,100206.94
2022-10-21T00:59:12.914Z,100205.22
2022-10-21T01:01:18.011Z,100200.00
2022-10-21T01:03:25.335Z,100194.81
2022-10-21T01:05:27.992Z,100202.56
2022-10-21T01:07:30.145Z,100192.19
2022-10-21T01:09:32.677Z,100194.78
2022-10-21T01:11:42.408Z,100189.63
2022-10-21T01:14:21.278Z,100197.38
2022-10-21T01:16:35.033Z,100199.97
2022-10-21T01:19:04.194Z,100200.00
2022-10-21T01:21:36.256Z,100205.22
2022-10-21T01:24:14.300Z,100193.13
2022-10-21T01:26:25.215Z,100182.75
2022-10-21T01:28:51.349Z,100176.69
2022-10-21T01:31:20.234Z,100171.53
2022-10-21T01:33:45.479Z,100155.09
2022-10-21T01:35:57.933Z,100129.16
2022-10-21T01:38:22.769Z,100117.94
2022-10-21T01:40:40.128Z,100114.50
2022-10-21T01:42:44.987Z,100119.69
2022-10-21T01:45:01.261Z,100124.00
2022-10-21T01:47:14.930Z,100121.47
2022-10-21T01:49:24.334Z,100120.59
2022-10-21T01:51:27.824Z,100113.69
2022-10-21T01:53:35.307Z,100122.34
2022-10-21T01:55:39.512Z,100115.41
2022-10-21T01:57:46.347Z,100102.50
2022-10-21T01:59:49.786Z,100099.88
2022-10-21T02:01:53.558Z,100099.88
2022-10-21T02:04:01.058Z,100114.53
2022-10-21T02:06:03.531Z,100116.28
2022-10-21T02:08:05.416Z,100111.97
2022-10-21T02:10:07.660Z,100127.50
2022-10-21T02:12:10.598Z,100118.03
2022-10-21T02:14:31.718Z,100106.78
2022-10-21T02:16:39.045Z,100092.97
2022-10-21T02:18:40.844Z,100077.41
2022-10-21T02:20:44.659Z,100064.50
2022-10-21T02:22:47.774Z,100069.66
2022-10-21T02:24:58.738Z,100061.03
2022-10-21T02:27:05.242Z,100069.66
2022-10-21T02:29:07.358Z,100077.38
2022-10-21T02:31:15.001Z,100069.66
2022-10-21T02:33:45.604Z,100065.25
2022-10-21T02:36:14.161Z,100063.53
2022-10-21T02:38:33.076Z,100063.56
2022-10-21T02:40:44.774Z,100058.34
2022-10-21T02:42:54.209Z,100060.09
2022-10-21T02:44:55.963Z,100073.00
2022-10-21T02:47:03.584Z,100066.97
2022-10-21T02:49:06.200Z,100080.81
2022-10-21T02:51:08.412Z,100082.50
2022-10-21T02:53:11.056Z,100090.38
2022-10-21T02:55:13.515Z,100076.56
2022-10-21T02:57:15.180Z,100078.22
2022-10-21T02:59:16.905Z,100079.94
2022-10-21T03:01:18.755Z,100079.94
2022-10-21T03:03:20.596Z,100065.25
2022-10-21T03:05:22.277Z,100041.88
2022-10-21T03:07:23.979Z,100013.38
2022-10-21T03:09:25.631Z,99994.44
2022-10-21T03:11:27.305Z,99990.94
2022-10-21T03:13:28.946Z,99999.53
2022-10-21T03:15:30.749Z,100016.81
2022-10-21T03:17:32.494Z,100018.47
2022-10-21T03:19:34.264Z,100015.09
2022-10-21T03:21:35.931Z,100018.47
2022-10-21T03:23:38.049Z,100021.97
2022-10-21T03:25:39.691Z,100028.91
2022-10-21T03:27:41.347Z,100023.72
2022-10-21T03:29:43.012Z,100019.44
2022-10-21T03:31:44.617Z,100020.22
2022-10-21T03:33:46.284Z,100015.97
2022-10-21T03:35:48.062Z,100018.59
2022-10-21T03:37:49.725Z,100018.59
2022-10-21T03:39:51.417Z,100009.06
2022-10-21T03:41:53.215Z,100003.94
2022-10-21T03:43:54.860Z,100002.22
2022-10-21T03:45:57.196Z,99997.00
2022-10-21T03:47:58.869Z,99993.56
2022-10-21T03:50:00.499Z,99992.66
2022-10-21T03:52:02.156Z,99990.00
2022-10-21T03:54:03.915Z,99986.56
2022-10-21T03:56:05.880Z,99990.84
2022-10-21T03:58:07.544Z,99998.69
2022-10-21T04:00:09.754Z,99988.31
2022-10-21T04:02:11.434Z,99983.03
2022-10-21T04:04:13.154Z,99975.25
2022-10-21T04:06:14.784Z,99973.53
2022-10-21T04:08:21.855Z,99963.19
2022-10-21T04:10:23.502Z,99955.34
2022-10-21T04:12:25.214Z,99946.69
2022-10-21T04:14:26.938Z,99949.25
2022-10-21T04:16:28.598Z,99963.91
2022-10-21T04:18:31.506Z,99958.72
2022-10-21T04:20:33.465Z,99962.19
2022-10-21T04:22:35.299Z,99949.16
2022-10-21T04:24:37.067Z,99946.59
2022-10-21T04:26:38.923Z,99946.56
2022-10-21T04:28:40.576Z,99941.38
2022-10-21T04:30:42.201Z,99946.53
2022-10-21T04:32:43.974Z,99961.19
2022-10-21T04:34:45.762Z,99965.50
2022-10-21T04:36:47.379Z,99966.38
2022-10-21T04:38:49.219Z,99973.28
2022-10-21T04:41:02.157Z,99981.06
2022-10-21T04:43:04.076Z,99972.41
2022-10-21T04:45:06.173Z,99963.84
2022-10-21T04:47:08.004Z,99962.09
2022-10-21T04:49:09.639Z,99960.38
2022-10-21T04:51:11.426Z,99962.09
2022-10-21T04:53:13.082Z,99958.66
2022-10-21T04:55:14.766Z,99959.50
2022-10-21T04:57:16.510Z,99950.88
2022-10-21T04:59:18.189Z,99949.16
2022-10-21T05:01:19.914Z,99957.81
2022-10-21T05:03:22.452Z,99956.94
2022-10-21T05:05:24.102Z,99956.19
2022-10-21T05:07:25.767Z,99949.25
2022-10-21T05:09:27.536Z,99946.69
2022-10-21T05:11:30.532Z,99944.09
2022-10-21T05:13:33.642Z,99941.53
2022-10-21T05:15:35.336Z,99931.13
2022-10-21T05:17:37.414Z,99931.09
2022-10-21T05:19:39.221Z,99938.09
2022-10-21T05:21:40.866Z,99935.50
2022-10-21T05:23:42.544Z,99934.63
2022-10-21T05:25:45.140Z,99944.13
2022-10-21T05:27:46.841Z,99936.38
2022-10-21T05:29:48.451Z,99941.50
2022-10-21T05:31:50.151Z,99941.47
2022-10-21T05:33:52.014Z,99934.56
2022-10-21T05:35:57.643Z,99935.44
2022-10-21T05:37:59.325Z,99930.25
2022-10-21T05:40:00.970Z,99920.75
2022-10-21T05:42:02.871Z,99926.81
2022-10-21T05:44:04.664Z,99926.78
2022-10-21T05:46:08.065Z,99925.91
2022-10-21T05:48:11.735Z,99918.13
2022-10-21T05:50:16.525Z,99910.28
2022-10-21T05:52:18.174Z,99904.22
2022-10-21T05:54:19.992Z,99905.13
2022-10-21T05:56:22.178Z,99903.38
2022-10-21T05:58:27.705Z,99911.13
2022-10-21T06:00:29.534Z,99926.69
2022-10-21T06:02:31.288Z,99921.50
2022-10-21T06:04:37.804Z,99925.81
2022-10-21T06:06:40.530Z,99929.28
2022-10-21T06:08:42.232Z,99929.38
2022-10-21T06:10:44.658Z,99925.00
2022-10-21T06:12:46.334Z,99925.88
2022-10-21T06:14:48.081Z,99931.94
2022-10-21T06:16:49.767Z,99912.06
2022-10-21T06:18:51.494Z,99917.22
2022-10-21T06:20:53.266Z,99909.44
2022-10-21T06:22:55.105Z,99912.94
2022-10-21T06:24:56.783Z,99915.47
2022-10-21T06:26:58.567Z,99920.66
2022-10-21T06:29:00.227Z,99924.13
2022-10-21T06:31:02.686Z,99935.44
2022-10-21T06:33:04.324Z,99935.41
2022-10-21T06:35:06.083Z,99940.59
2022-10-21T06:37:07.871Z,99941.50
2022-10-21T06:39:09.530Z,99957.97
2022-10-21T06:41:14.289Z,99959.69
2022-10-21T06:43:16.777Z,99955.28
2022-10-21T06:45:18.490Z,99944.06
2022-10-21T06:47:20.165Z,99953.50
2022-10-21T06:49:21.888Z,99957.78
2022-10-21T06:51:24.589Z,99957.81
2022-10-21T06:53:26.535Z,99953.47
2022-10-21T06:55:28.259Z,99958.63
2022-10-21T06:57:29.867Z,99948.25
2022-10-21T06:59:31.671Z,99944.81
2022-10-21T07:01:48.478Z,99948.22
2022-10-21T07:03:55.577Z,99959.47
2022-10-21T07:06:00.956Z,99956.84
2022-10-21T07:08:02.822Z,99959.47
2022-10-21T07:10:05.075Z,99967.25
2022-10-21T07:12:06.806Z,99976.66
2022-10-21T07:14:08.463Z,99980.09
2022-10-21T07:16:25.823Z,99979.31
2022-10-21T07:18:36.992Z,99973.22
2022-10-21T07:20:40.894Z,99968.91
2022-10-21T07:22:42.535Z,99968.00
2022-10-21T07:24:44.359Z,99960.19
2022-10-21T07:26:46.246Z,99965.38
2022-10-21T07:28:48.460Z,99967.97
2022-10-21T07:30:50.223Z,99968.75
2022-10-21T07:32:51.912Z,99977.38
2022-10-21T07:34:53.530Z,99984.28
2022-10-21T07:36:55.370Z,99981.63
2022-10-21T07:38:59.920Z,99985.03
2022-10-21T07:41:02.114Z,99976.34
2022-10-21T07:43:04.015Z,99977.28
2022-10-21T07:45:06.140Z,99976.34
2022-10-21T07:47:07.868Z,99988.44
2022-10-21T07:49:10.364Z,99984.97
2022-10-21T07:51:14.214Z,99989.19
2022-10-21T07:53:16.435Z,99993.47
2022-10-21T07:55:18.372Z,99990.03
2022-10-21T07:57:20.118Z,99981.28
2022-10-21T07:59:23.361Z,99981.25
2022-10-21T08:01:25.988Z,99980.38
2022-10-21T08:03:28.648Z,99981.16
2022-10-21T08:05:30.350Z,99985.59
2022-10-21T08:07:33.650Z,99993.41
2022-10-21T08:09:35.287Z,99982.03
2022-10-21T08:11:37.050Z,99987.13
2022-10-21T08:13:41.602Z,99983.81
2022-10-21T08:15:44.829Z,99991.47
2022-10-21T08:17:46.468Z,99983.59
2022-10-21T08:19:48.298Z,99981.81
2022-10-21T08:21:50.137Z,99981.84
2022-10-21T08:23:51.772Z,99990.28
2022-10-21T08:25:56.275Z,99992.06
2022-10-21T08:27:57.945Z,100000.78
2022-10-21T08:29:59.619Z,99997.16
2022-10-21T08:32:01.241Z,99998.97
2022-10-21T08:34:03.030Z,100005.75
2022-10-21T08:36:06.179Z,99994.56
2022-10-21T08:38:08.413Z,99987.56
2022-10-21T08:40:10.946Z,99988.31
2022-10-21T08:42:15.761Z,99982.28
2022-10-21T08:44:30.293Z,99982.25
2022-10-21T08:46:45.159Z,99987.41
2022-10-21T08:49:11.141Z,99988.31
2022-10-21T08:51:28.948Z,99991.78
2022-10-21T08:53:39.630Z,99984.81
2022-10-21T08:55:43.938Z,99983.91
2022-10-21T08:57:47.706Z,99989.03
2022-10-21T08:59:49.901Z,99984.81
2022-10-21T09:02:12.986Z,99990.81
2022-10-21T09:04:26.560Z,99983.72
2022-10-21T09:07:04.513Z,99990.47
2022-10-21T09:09:15.081Z,99983.38
2022-10-21T09:11:21.979Z,99981.72
2022-10-21T09:13:32.234Z,99982.44
2022-10-21T09:15:51.164Z,99985.78
2022-10-21T09:18:00.099Z,99990.09
2022-10-21T09:20:39.214Z,99982.28
2022-10-21T09:23:05.677Z,99992.63
2022-10-21T09:25:34.529Z,99981.31
2022-10-21T09:27:51.366Z,99990.81
2022-10-21T09:30:06.907Z,99983.94
2022-10-21T09:32:19.329Z,99981.22
2022-10-21T09:34:40.523Z,99975.94
2022-10-21T09:36:48.836Z,99986.41
2022-10-21T09:39:05.106Z,99983.72
2022-10-21T09:41:13.992Z,99983.66
2022-10-21T09:43:24.708Z,99981.03
2022-10-21T09:45:35.258Z,99988.88
2022-10-21T09:47:37.324Z,99991.44
2022-10-21T09:50:05.693Z,99983.63
2022-10-21T09:52:03.893Z,99980.91
2022-10-21T09:54:15.025Z,99972.44
2022-10-21T09:56:27.892Z,99980.41
2022-10-21T09:58:37.083Z,99977.56
2022-10-21T10:00:50.105Z,99973.31
2022-10-21T10:02:51.836Z,99970.50
2022-10-21T10:04:53.616Z,99986.19
2022-10-21T10:06:55.400Z,99979.00
2022-10-21T10:09:24.537Z,99968.06
2022-10-21T10:11:26.220Z,99972.25
2022-10-21T10:13:29.223Z,99969.56
2022-10-21T10:15:37.502Z,99974.75
2022-10-21T10:17:39.862Z,99975.56
2022-10-21T10:19:41.511Z,99980.63
2022-10-21T10:21:43.760Z,99981.56
2022-10-21T10:23:56.799Z,99974.53
2022-10-21T10:25:58.727Z,99979.06
2022-10-21T10:28:09.322Z,99971.19
2022-10-21T10:30:15.362Z,99979.06
2022-10-21T10:32:17.111Z,99988.00
2022-10-21T10:34:23.043Z,99997.53
2022-10-21T10:36:29.006Z,99997.59
2022-10-21T10:38:41.572Z,99985.31
2022-10-21T10:40:43.927Z,100001.69
2022-10-21T10:42:46.646Z,99987.00
2022-10-21T10:44:53.145Z,99997.47
2022-10-21T10:46:57.314Z,99994.63
2022-10-21T10:49:06.858Z,99979.09
2022-10-21T10:51:24.241Z,99977.97
2022-10-21T10:53:34.488Z,99981.22
2022-10-21T10:55:43.871Z,99985.53
2022-10-21T10:57:58.970Z,99977.56
2022-10-21T11:00:19.201Z,99979.25
2022-10-21T11:02:42.643Z,99974.09
2022-10-21T11:05:20.417Z,99982.53
2022-10-21T11:07:28.506Z,99979.72
2022-10-21T11:09:34.320Z,99990.03
2022-10-21T11:11:45.372Z,99976.03
2022-10-21T11:13:47.438Z,99979.44
2022-10-21T11:16:31.373Z,99974.25
2022-10-21T11:18:54.828Z,99966.50
2022-10-21T11:21:01.066Z,99999.22
2022-10-21T11:23:25.486Z,99972.59
2022-10-21T11:25:35.311Z,99977.75
2022-10-21T11:27:48.711Z,99979.63
2022-10-21T11:30:14.206Z,99981.56
2022-10-21T11:33:15.572Z,99983.53
2022-10-21T11:35:57.805Z,99969.28
2022-10-21T11:38:45.857Z,99961.16
2022-10-21T11:40:54.378Z,99961.78
2022-10-21T11:43:02.078Z,99965.13
2022-10-21T11:45:03.790Z,99990.22
2022-10-21T11:47:40.233Z,99963.63
2022-10-21T11:49:51.035Z,99947.19
2022-10-21T11:52:17.688Z,99947.13
2022-10-21T11:54:26.610Z,99970.72
2022-10-21T11:56:43.293Z,99961.75
2022-10-21T11:59:04.841Z,99981.78
2022-10-21T12:01:29.595Z,99956.34
2022-10-21T12:03:59.409Z,99948.59
2022-10-21T12:06:13.783Z,99954.28
2022-10-21T12:08:41.363Z,99937.19
2022-10-21T12:10:57.526Z,99954.66
2022-10-21T12:13:05.585Z,99947.75
2022-10-21T12:15:19.143Z,99958.31
2022-10-21T12:17:22.867Z,99948.06
2022-10-21T12:19:26.154Z,99950.75
2022-10-21T12:21:30.917Z,99963.50
2022-10-21T12:23:32.748Z,99960.47
2022-10-21T12:25:56.227Z,99968.06
2022-10-21T12:28:07.683Z,99961.88
2022-10-21T12:30:22.139Z,99961.31
2022-10-21T12:32:45.156Z,99959.59
2022-10-21T12:34:47.195Z,99949.19
2022-10-21T12:36:51.021Z,99952.28
2022-10-21T12:39:01.569Z,99940.41
2022-10-21T12:41:34.277Z,99953.97
2022-10-21T12:43:35.926Z,99950.84
2022-10-21T12:45:38.790Z,99940.19
2022-10-21T12:47:45.419Z,99941.03
2022-10-21T12:49:47.189Z,99933.00
2022-10-21T12:51:54.719Z,99942.88
2022-10-21T12:54:02.444Z,99932.22
2022-10-21T12:56:05.818Z,99941.03
2022-10-21T12:58:38.844Z,99914.81
2022-10-21T13:00:43.521Z,99933.31
2022-10-21T13:03:14.421Z,99930.94
2022-10-21T13:05:35.839Z,99915.09
2022-10-21T13:07:38.043Z,99920.31
2022-10-21T13:09:51.650Z,99912.22
2022-10-21T13:12:08.571Z,99920.22
2022-10-21T13:14:16.232Z,99916.63
2022-10-21T13:16:20.959Z,99909.66
2022-10-21T13:18:50.513Z,99921.94
2022-10-21T13:20:58.792Z,99905.78
2022-10-21T13:23:40.268Z,99943.19
2022-10-21T13:25:42.070Z,99940.13
2022-10-21T13:27:55.487Z,99930.47
2022-10-21T13:29:58.442Z,99956.88
2022-10-21T13:32:24.109Z,99925.00
2022-10-21T13:34:31.814Z,99920.41
2022-10-21T13:38:49.794Z,99932.28
2022-10-21T13:40:57.802Z,99914.88
2022-10-21T13:43:05.258Z,99923.44
2022-10-21T13:45:37.666Z,99934.41
2022-10-21T13:47:39.480Z,99932.53
2022-10-21T13:49:50.702Z,99928.19
2022-10-21T13:51:53.548Z,99934.34
2022-10-21T13:53:57.822Z,99920.03
2022-10-21T13:56:05.756Z,99908.94
2022-10-21T13:58:16.917Z,99910.78
2022-10-21T14:00:33.853Z,99935.91
2022-10-21T14:02:35.731Z,99912.19
2022-10-21T14:04:40.660Z,99922.59
2022-10-21T14:06:57.023Z,99907.84
2022-10-21T14:09:00.775Z,99906.06
2022-10-21T14:11:10.379Z,99934.25
2022-10-21T14:13:12.665Z,99911.50
2022-10-21T14:15:28.040Z,99923.59
2022-10-21T14:17:29.818Z,99906.31
2022-10-21T14:19:37.870Z,99931.66
2022-10-21T14:21:43.533Z,99904.44
2022-10-21T14:23:46.849Z,99908.84
2022-10-21T14:25:49.760Z,99894.69
2022-10-21T14:27:51.561Z,99915.75
2022-10-21T14:29:54.612Z,99908.84
2022-10-21T14:31:57.569Z,99901.69
2022-10-21T14:33:59.330Z,99903.47
2022-10-21T14:36:31.975Z,99897.13
2022-10-21T14:38:44.458Z,99910.53
2022-10-21T14:40:59.194Z,99899.13
2022-10-21T14:43:16.790Z,99904.34
2022-10-21T14:45:25.489Z,99911.13
2022-10-21T14:47:27.561Z,99902.91
2022-10-21T14:49:46.662Z,99884.91
2022-10-21T14:51:49.353Z,99905.22
2022-10-21T14:54:02.101Z,99890.66
2022-10-21T14:56:06.825Z,99880.94
2022-10-21T14:58:11.282Z,99879.94
2022-10-21T15:00:28.946Z,99890.03
2022-10-21T15:02:36.120Z,99885.16
2022-10-21T15:04:48.053Z,99884.00
2022-10-21T15:07:01.571Z,99886.53
2022-10-21T15:09:23.339Z,99900.69
2022-10-21T15:11:29.050Z,99886.53
2022-10-21T15:13:31.549Z,99891.28
2022-10-21T15:15:39.892Z,99885.34
2022-10-21T15:17:42.194Z,99875.91
2022-10-21T15:19:52.791Z,99874.50
2022-10-21T15:22:03.436Z,99889.50
2022-10-21T15:24:05.290Z,99882.31
2022-10-21T15:26:18.605Z,99880.94
2022-10-21T15:28:32.114Z,99873.19
2022-10-21T15:30:37.072Z,99871.50
2022-10-21T15:32:38.742Z,99864.66
2022-10-21T15:34:40.423Z,99861.63
2022-10-21T15:36:44.048Z,99867.50
2022-10-21T15:38:47.052Z,99881.25
2022-10-21T15:40:48.740Z,99886.56
2022-10-21T15:42:50.600Z,99882.19
2022-10-21T15:44:52.324Z,99868.38
2022-10-21T15:47:00.560Z,99867.56
2022-10-21T15:49:13.327Z,99878.97
2022-10-21T15:51:15.041Z,99876.19
2022-10-21T15:53:16.981Z,99876.22
2022-10-21T15:55:18.756Z,99870.03
2022-10-21T15:57:22.472Z,99885.16
2022-10-21T15:59:27.410Z,99863.28
2022-10-21T16:01:29.207Z,99859.28
2022-10-21T16:03:31.481Z,99858.97
2022-10-21T16:05:33.451Z,99863.47
2022-10-21T16:07:36.982Z,99866.00
2022-10-21T16:09:38.747Z,99869.44
2022-10-21T16:11:41.437Z,99859.47
2022-10-21T16:13:50.125Z,99875.97
2022-10-21T16:15:51.806Z,99869.78
2022-10-21T16:17:56.926Z,99875.13
2022-10-21T16:19:58.536Z,99874.69
2022-10-21T16:22:00.179Z,99887.75
2022-10-21T16:24:01.828Z,99893.91
2022-10-21T16:26:05.544Z,99899.25
2022-10-21T16:28:07.250Z,99897.50
2022-10-21T16:30:30.278Z,99924.47
2022-10-21T16:32:31.914Z,99914.66
2022-10-21T16:34:33.584Z,99915.75
2022-10-21T16:36:37.928Z,99899.59
2022-10-21T16:38:39.576Z,99920.59
2022-10-21T16:40:41.202Z,99906.09
2022-10-21T16:42:42.967Z,99917.66
2022-10-21T16:44:46.107Z,99903.72
2022-10-21T16:46:53.654Z,99916.03
2022-10-21T16:48:55.717Z,99911.53
2022-10-21T16:50:58.045Z,99907.09
2022-10-21T16:53:02.150Z,99914.81
2022-10-21T16:55:04.086Z,99918.47
2022-10-21T16:57:07.785Z,99911.56
2022-10-21T16:59:09.755Z,99905.59
2022-10-21T17:01:21.646Z,99896.88
2022-10-21T17:03:23.487Z,99908.91
2022-10-21T17:05:25.650Z,99909.97
2022-10-21T17:07:27.893Z,99898.69
2022-10-21T17:09:29.500Z,99920.41
2022-10-21T17:11:37.751Z,99896.78
2022-10-21T17:13:44.434Z,99902.00
2022-10-21T17:15:46.140Z,99902.72
2022-10-21T17:17:48.659Z,99903.50
2022-10-21T17:19:53.295Z,99900.16
2022-10-21T17:21:55.290Z,99902.63
2022-10-21T17:23:57.906Z,99900.13
2022-10-21T17:25:59.703Z,99905.50
2022-10-21T17:28:01.432Z,99903.63
2022-10-21T17:30:04.181Z,99911.41
2022-10-21T17:32:06.283Z,99928.03
2022-10-21T17:34:13.714Z,99929.59
2022-10-21T17:36:16.101Z,99929.06
2022-10-21T17:38:28.453Z,99928.28
2022-10-21T17:40:30.279Z,99949.97
2022-10-21T17:42:38.200Z,99961.53
2022-10-21T17:44:40.394Z,99958.13
2022-10-21T17:46:42.537Z,99952.38
2022-10-21T17:48:44.253Z,99952.16
2022-10-21T17:50:46.202Z,99957.50
2022-10-21T17:52:47.887Z,99966.00
2022-10-21T17:54:49.590Z,99955.63
2022-10-21T17:56:54.333Z,99940.97
2022-10-21T17:59:02.237Z,99956.47
2022-10-21T18:01:10.165Z,99951.41
2022-10-21T18:03:11.898Z,99958.44
2022-10-21T18:05:13.589Z,99954.00
2022-10-21T18:07:17.682Z,99955.81
2022-10-21T18:09:19.770Z,99954.03
2022-10-21T18:11:21.713Z,99953.88
2022-10-21T18:13:25.192Z,99944.31
2022-10-21T18:15:28.330Z,99950.50
2022-10-21T18:17:29.986Z,99953.19
2022-10-21T18:19:31.774Z,99941.66
2022-10-21T18:21:33.436Z,99949.59
2022-10-21T18:23:36.964Z,99949.50
2022-10-21T18:25:39.847Z,99943.31
2022-10-21T18:27:41.587Z,99937.44
2022-10-21T18:29:43.358Z,99939.16
2022-10-21T18:31:45.013Z,99942.47
2022-10-21T18:33:46.955Z,99928.53
2022-10-21T18:35:48.658Z,99938.03
2022-10-21T18:37:52.234Z,99944.09
2022-10-21T18:39:56.759Z,99935.59
2022-10-21T18:42:00.618Z,99932.00
2022-10-21T18:44:08.075Z,99931.09
2022-10-21T18:46:10.039Z,99935.44
2022-10-21T18:48:11.695Z,99933.66
2022-10-21T18:50:14.283Z,99932.84
2022-10-21T18:52:15.909Z,99931.09
2022-10-21T18:54:17.688Z,99936.25
2022-10-21T18:56:20.512Z,99934.56
2022-10-21T18:58:31.409Z,99934.56
2022-10-21T19:00:34.630Z,99934.44
2022-10-21T19:02:36.287Z,99938.78
2022-10-21T19:04:38.052Z,99930.25
2022-10-21T19:06:46.210Z,99929.34
2022-10-21T19:08:48.145Z,99926.75
2022-10-21T19:10:50.059Z,99930.03
2022-10-21T19:12:52.562Z,99925.75
2022-10-21T19:14:54.273Z,99926.59
2022-10-21T19:16:56.301Z,99938.03
2022-10-21T19:18:58.147Z,99934.50
2022-10-21T19:20:59.843Z,99936.97
2022-10-21T19:23:01.493Z,99940.50
2022-10-21T19:25:03.284Z,99935.25
2022-10-21T19:27:05.011Z,99941.34
2022-10-21T19:29:09.530Z,99944.06
2022-10-21T19:31:12.190Z,99942.34
2022-10-21T19:33:13.866Z,99938.88
2022-10-21T19:35:15.504Z,99929.25
2022-10-21T19:37:17.218Z,99957.06
2022-10-21T19:39:19.387Z,99929.28
2022-10-21T19:41:22.474Z,99944.00
2022-10-21T19:43:25.559Z,99947.19
2022-10-21T19:45:27.173Z,99950.69
2022-10-21T19:47:30.993Z,99949.97
2022-10-21T19:49:33.120Z,99953.34
2022-10-21T19:51:35.822Z,99949.06
2022-10-21T19:53:37.621Z,99938.47
2022-10-21T19:55:39.408Z,99947.00
2022-10-21T19:57:41.094Z,99953.25
2022-10-21T19:59:42.733Z,99953.34
2022-10-21T20:01:44.445Z,99951.53
2022-10-21T20:03:47.784Z,99954.84
2022-10-21T20:05:49.416Z,99951.53
2022-10-21T20:07:51.121Z,99955.75
2022-10-21T20:09:52.766Z,99955.75
2022-10-21T20:11:55.179Z,99966.34
2022-10-21T20:13:57.633Z,99964.63
2022-10-21T20:16:00.114Z,99967.91
2022-10-21T20:18:01.843Z,99964.38
2022-10-21T20:20:03.987Z,99980.16
2022-10-21T20:22:06.399Z,99969.63
2022-10-21T20:24:08.407Z,99960.94
2022-10-21T20:26:10.444Z,99978.31
2022-10-21T20:28:12.086Z,99967.09
2022-10-21T20:30:13.819Z,99965.53
2022-10-21T20:32:15.468Z,99960.25
2022-10-21T20:34:17.078Z,99964.66
2022-10-21T20:36:24.645Z,99982.78
2022-10-21T20:38:26.290Z,99979.28
2022-10-21T20:40:27.969Z,99987.28
2022-10-21T20:42:29.564Z,99976.06
2022-10-21T20:44:31.197Z,99975.94
2022-10-21T20:46:35.367Z,99993.25
2022-10-21T20:48:44.390Z,99993.16
2022-10-21T20:50:46.050Z,99984.44
2022-10-21T20:52:47.693Z,99979.41
2022-10-21T20:54:51.949Z,99977.69
2022-10-21T20:56:53.774Z,99979.50
2022-10-21T20:58:56.418Z,99977.69
2022-10-21T21:00:58.117Z,99986.50
2022-10-21T21:02:59.771Z,99988.19
2022-10-21T21:05:01.399Z,99978.38
2022-10-21T21:07:03.023Z,99985.31
2022-10-21T21:11:26.684Z,99984.66
2022-10-21T21:13:28.517Z,99983.78
2022-10-21T21:15:30.155Z,99984.41
2022-10-21T21:17:31.827Z,99969.00
2022-10-21T21:19:33.774Z,99984.47
2022-10-21T21:21:36.474Z,99980.88
2022-10-21T21:23:40.185Z,99986.13
2022-10-21T21:25:41.806Z,99978.19
2022-10-21T21:27:43.431Z,99981.84
2022-10-21T21:29:45.134Z,99983.38
2022-10-21T21:31:47.195Z,99974.75
2022-10-21T21:33:49.052Z,99985.97
2022-10-21T21:35:50.796Z,99989.41
2022-10-21T21:37:52.492Z,99976.44
2022-10-21T21:39:54.122Z,99980.94
2022-10-21T21:41:55.887Z,99981.81
2022-10-21T21:43:58.392Z,99982.78
2022-10-21T21:46:00.761Z,99995.78
2022-10-21T21:48:02.596Z,99989.72
2022-10-21T21:50:04.548Z,99991.38
2022-10-21T21:52:06.279Z,100000.16
2022-10-21T21:54:08.121Z,99981.94
2022-10-21T21:56:09.843Z,99990.41
2022-10-21T21:58:11.712Z,99996.53
2022-10-21T22:00:14.963Z,100006.97
2022-10-21T22:02:16.664Z,99991.28
2022-10-21T22:04:19.106Z,99995.72
2022-10-21T22:08:28.359Z,100008.78
2022-10-21T22:10:30.063Z,100022.69
2022-10-21T22:12:31.692Z,100008.75
2022-10-21T22:14:33.407Z,100011.34
2022-10-21T22:16:35.158Z,100034.94
2022-10-21T22:18:37.192Z,100019.25
2022-10-21T22:20:42.169Z,100017.63
2022-10-21T22:22:43.989Z,100015.91
2022-10-21T22:24:46.332Z,100014.22
2022-10-21T22:26:48.530Z,100018.78
2022-10-21T22:28:50.336Z,100014.59
2022-10-21T22:30:57.591Z,100014.69
2022-10-21T22:32:59.209Z,100011.25
2022-10-21T22:35:00.882Z,100010.41
2022-10-21T22:37:02.510Z,100007.81
2022-10-21T22:39:04.119Z,100008.69
2022-10-21T22:41:09.967Z,100020.09
2022-10-21T22:43:14.077Z,100021.00
2022-10-21T22:45:15.843Z,100019.97
2022-10-21T22:47:17.714Z,100035.69
2022-10-21T22:49:19.448Z,100018.59
2022-10-21T22:51:21.205Z,100034.97
2022-10-21T22:53:22.947Z,100024.78
2022-10-21T22:55:24.678Z,100025.56
2022-10-21T22:57:26.342Z,100024.66
2022-10-21T22:59:27.924Z,100029.97
2022-10-21T23:01:30.713Z,100028.94
2022-10-21T23:03:32.349Z,100033.31
2022-10-21T23:05:33.963Z,100035.88
2022-10-21T23:07:35.773Z,100036.69
2022-10-21T23:09:37.491Z,100034.97
2022-10-21T23:11:39.210Z,100050.50
2022-10-21T23:13:51.184Z,100035.78
2022-10-21T23:16:02.803Z,100050.44
2022-10-21T23:18:05.006Z,100051.28
2022-10-21T23:20:07.407Z,100048.88
2022-10-21T23:22:09.016Z,100062.69
2022-10-21T23:24:10.852Z,100047.09
2022-10-21T23:26:12.472Z,100062.59
2022-10-21T23:28:24.048Z,100063.44
2022-10-21T23:30:25.874Z,100058.38
2022-10-21T23:32:27.506Z,100060.00
2022-10-21T23:34:29.344Z,100063.53
2022-10-21T23:36:31.031Z,100083.53
2022-10-21T23:38:32.763Z,100067.91
2022-10-21T23:40:34.394Z,100076.66
2022-10-21T23:42:40.308Z,100073.16
2022-10-21T23:44:44.325Z,100074.00
2022-10-21T23:46:45.959Z,100071.28
2022-10-21T23:48:48.278Z,100070.41
2022-10-21T23:50:49.912Z,100063.53
2022-10-21T23:52:51.602Z,100070.47
2022-10-21T23:54:53.301Z,100076.44
2022-10-21T23:56:54.954Z,100079.88
2022-10-21T23:58:56.579Z,100085.09
